Time;durP1;ratioP1;P1;durP2;ratioP2;P2;SDS_P1;SDS_P2;PMS_P1;PMS_P2;Temp;Humidity;BMP_temperature;BMP_pressure;BME280_temperature;BME280_humidity;BME280_pressure;Samples;Min_cycle;Max_cycle;Signal;HPM_P1;HPM_P2
2024/02/05 00:00:14;;;;;;;40.37;6.67;;;9.90;99.90;;;;;;5042000;28;20220;-61
2024/02/05 00:02:46;;;;;;;29.37;5.87;;;9.90;99.90;;;;;;5040915;28;20251;-61
2024/02/05 00:05:14;;;;;;;31.77;6.63;;;9.90;99.90;;;;;;5044699;28;20674;-62
2024/02/05 00:07:43;;;;;;;25.93;6.60;;;9.90;99.90;;;;;;5044507;28;20695;-61
2024/02/05 00:10:11;;;;;;;40.93;6.83;;;9.90;99.90;;;;;;5045690;28;20285;-61
2024/02/05 00:12:40;;;;;;;40.60;7.20;;;9.80;99.90;;;;;;5042611;28;20224;-62
2024/02/05 00:15:09;;;;;;;39.20;7.23;;;9.80;99.90;;;;;;5041036;28;20217;-61
2024/02/05 00:17:37;;;;;;;38.50;6.57;;;9.70;99.90;;;;;;5047259;28;20233;-61
2024/02/05 00:20:08;;;;;;;37.90;6.90;;;9.70;99.90;;;;;;5044129;28;20192;-61
2024/02/05 00:22:37;;;;;;;35.57;6.93;;;9.80;99.90;;;;;;5042283;28;20239;-61
2024/02/05 00:25:06;;;;;;;38.97;6.83;;;9.80;99.90;;;;;;5043282;28;20228;-60
2024/02/05 00:27:35;;;;;;;29.97;6.97;;;9.80;99.90;;;;;;5040360;28;20224;-61
2024/02/05 00:30:04;;;;;;;32.53;6.53;;;9.80;99.90;;;;;;5041509;28;20221;-61
2024/02/05 00:32:35;;;;;;;36.47;6.20;;;9.80;99.90;;;;;;5044933;28;20225;-61
2024/02/05 00:35:04;;;;;;;37.27;6.87;;;9.80;99.90;;;;;;5044235;28;20193;-62
2024/02/05 00:37:34;;;;;;;36.87;7.50;;;9.70;99.90;;;;;;5041535;28;20217;-61
2024/02/05 00:40:05;;;;;;;38.63;7.37;;;9.70;99.90;;;;;;5044382;28;20220;-61
2024/02/05 00:42:35;;;;;;;35.93;6.83;;;9.60;99.90;;;;;;5046883;28;20921;-62
2024/02/05 00:45:04;;;;;;;29.20;7.13;;;9.70;99.90;;;;;;5049054;28;21115;-61
2024/02/05 00:47:33;;;;;;;26.97;6.47;;;9.60;99.90;;;;;;5047252;28;20568;-61
2024/02/05 00:50:01;;;;;;;43.50;7.07;;;9.60;99.90;;;;;;5048923;28;20189;-61
2024/02/05 00:52:29;;;;;;;42.90;7.60;;;9.60;99.90;;;;;;5045972;28;20231;-61
2024/02/05 00:54:59;;;;;;;37.10;7.60;;;9.60;99.90;;;;;;5045613;28;20216;-61
2024/02/05 00:57:29;;;;;;;32.60;7.10;;;9.70;99.90;;;;;;5047518;28;20244;-61
2024/02/05 00:59:58;;;;;;;35.23;7.20;;;9.70;99.90;;;;;;5047918;28;20223;-62
2024/02/05 01:02:27;;;;;;;30.17;6.83;;;9.70;99.90;;;;;;5049138;28;20212;-61
2024/02/05 01:04:56;;;;;;;23.57;6.07;;;9.70;99.90;;;;;;5048953;28;20217;-61
2024/02/05 01:07:24;;;;;;;33.00;6.50;;;9.70;99.90;;;;;;5048864;28;20644;-61
2024/02/05 01:09:53;;;;;;;28.10;5.77;;;9.70;99.90;;;;;;5046850;28;20308;-61
2024/02/05 01:12:22;;;;;;;42.03;7.17;;;9.80;99.90;;;;;;5044004;28;20267;-61
2024/02/05 01:14:51;;;;;;;35.83;7.27;;;9.80;99.90;;;;;;5045900;28;20584;-61
2024/02/05 01:17:19;;;;;;;37.83;7.80;;;9.90;99.90;;;;;;5046326;28;20197;-62
2024/02/05 01:19:48;;;;;;;47.37;7.87;;;9.90;99.90;;;;;;5047665;28;20246;-61
2024/02/05 01:22:16;;;;;;;34.97;7.00;;;10.00;99.90;;;;;;5044680;28;20218;-61
2024/02/05 01:24:45;;;;;;;37.00;7.97;;;10.00;99.90;;;;;;5047536;28;20300;-61
2024/02/05 01:27:13;;;;;;;28.83;6.17;;;10.10;99.90;;;;;;5045606;28;20718;-61
2024/02/05 01:29:46;;;;;;;23.33;5.97;;;10.10;99.90;;;;;;5044713;28;20228;-62
2024/02/05 01:32:14;;;;;;;27.73;6.27;;;10.10;99.90;;;;;;5045838;28;20266;-62
2024/02/05 01:34:43;;;;;;;39.93;6.93;;;10.20;99.90;;;;;;5048300;28;20220;-61
2024/02/05 01:37:12;;;;;;;37.80;6.80;;;10.20;99.90;;;;;;5042486;28;20214;-61
2024/02/05 01:39:40;;;;;;;28.37;6.40;;;10.20;99.90;;;;;;5044235;28;20228;-61
2024/02/05 01:42:08;;;;;;;28.20;5.93;;;10.20;99.90;;;;;;5044232;28;20270;-61
2024/02/05 01:44:36;;;;;;;41.17;7.33;;;10.10;99.90;;;;;;5045175;28;20236;-62
2024/02/05 01:47:06;;;;;;;31.60;7.07;;;10.10;99.90;;;;;;5046996;28;20193;-61
2024/02/05 01:49:35;;;;;;;27.90;6.47;;;10.20;99.90;;;;;;5040194;28;20225;-61
2024/02/05 01:52:08;;;;;;;27.93;6.17;;;10.10;99.90;;;;;;5046060;28;20232;-61
2024/02/05 01:54:37;;;;;;;43.67;7.40;;;10.10;99.90;;;;;;5048063;28;20255;-62
2024/02/05 01:57:10;;;;;;;27.17;6.37;;;10.10;99.90;;;;;;5045205;28;20270;-61
2024/02/05 01:59:39;;;;;;;28.03;6.20;;;10.00;99.90;;;;;;5044345;28;20235;-61
2024/02/05 02:02:11;;;;;;;39.83;6.60;;;10.10;99.90;;;;;;5048045;28;20284;-61
2024/02/05 02:04:39;;;;;;;37.63;6.20;;;10.10;99.90;;;;;;5045541;28;20253;-62
2024/02/05 02:07:10;;;;;;;36.80;6.30;;;10.00;99.90;;;;;;5042395;28;20221;-62
2024/02/05 02:09:40;;;;;;;30.60;7.00;;;10.00;99.90;;;;;;5045885;28;20711;-61
2024/02/05 02:12:08;;;;;;;27.20;6.03;;;10.00;99.90;;;;;;5047092;28;20234;-61
2024/02/05 02:14:37;;;;;;;29.20;6.50;;;9.90;99.90;;;;;;5045078;28;20228;-61
2024/02/05 02:17:06;;;;;;;40.40;6.93;;;9.90;99.90;;;;;;5043201;28;20193;-62
2024/02/05 02:19:42;;;;;;;36.13;6.87;;;9.90;99.90;;;;;;5044948;28;20711;-62
2024/02/05 02:22:21;;;;;;;38.80;7.00;;;10.00;99.90;;;;;;5043980;28;20310;-62
2024/02/05 02:24:51;;;;;;;32.97;7.27;;;9.90;99.90;;;;;;5042681;28;20322;-61
2024/02/05 02:27:19;;;;;;;29.10;6.50;;;9.90;99.90;;;;;;5043345;28;20216;-61
2024/02/05 02:29:47;;;;;;;43.27;6.67;;;9.90;99.90;;;;;;5047299;28;20227;-61
2024/02/05 02:32:24;;;;;;;30.70;5.87;;;9.90;99.90;;;;;;5045959;28;20219;-61
2024/02/05 02:34:58;;;;;;;33.63;6.77;;;9.90;99.90;;;;;;5042005;28;20189;-62
2024/02/05 02:37:31;;;;;;;38.00;6.97;;;9.80;99.90;;;;;;5043401;28;20217;-62
2024/02/05 02:40:09;;;;;;;30.13;6.37;;;9.80;99.90;;;;;;5045038;28;20220;-62
2024/02/05 02:42:42;;;;;;;29.93;6.80;;;9.90;99.90;;;;;;5043531;28;20221;-61
2024/02/05 02:45:12;;;;;;;29.57;6.53;;;9.90;99.90;;;;;;5047498;28;20225;-62
2024/02/05 02:47:42;;;;;;;35.67;6.60;;;10.00;99.90;;;;;;5045658;28;20332;-62
2024/02/05 02:50:11;;;;;;;32.83;6.77;;;10.00;99.90;;;;;;5046370;28;20193;-62
2024/02/05 02:52:39;;;;;;;30.97;6.87;;;10.00;99.90;;;;;;5026043;28;20204;-61
2024/02/05 02:55:09;;;;;;;25.87;5.80;;;9.90;99.90;;;;;;5040139;28;20247;-61
2024/02/05 02:57:37;;;;;;;29.30;5.93;;;10.00;99.90;;;;;;5043153;28;20223;-62
2024/02/05 03:00:08;;;;;;;31.97;6.93;;;10.00;99.90;;;;;;5041816;28;20217;-62
2024/02/05 03:02:37;;;;;;;27.97;6.27;;;10.00;99.90;;;;;;5044371;28;20297;-62
2024/02/05 03:05:06;;;;;;;37.10;6.73;;;10.00;99.90;;;;;;5044859;28;20204;-61
2024/02/05 03:07:35;;;;;;;35.97;6.23;;;10.00;99.90;;;;;;5039928;28;20300;-62
2024/02/05 03:10:05;;;;;;;31.77;5.93;;;10.00;99.90;;;;;;5043748;28;20224;-61
2024/02/05 03:12:35;;;;;;;28.17;6.43;;;10.00;99.90;;;;;;5042855;28;20263;-62
2024/02/05 03:15:04;;;;;;;31.37;6.17;;;10.00;99.90;;;;;;5041600;28;20217;-61
2024/02/05 03:17:35;;;;;;;39.07;6.87;;;10.00;99.90;;;;;;5042180;28;20220;-62
2024/02/05 03:20:06;;;;;;;32.07;6.50;;;9.90;99.90;;;;;;5040022;28;20200;-61
2024/02/05 03:22:34;;;;;;;33.97;6.43;;;9.90;99.90;;;;;;5044027;28;20221;-61
2024/02/05 03:25:03;;;;;;;25.30;5.60;;;10.00;99.90;;;;;;5040405;28;20221;-61
2024/02/05 03:27:32;;;;;;;30.37;5.50;;;10.00;99.90;;;;;;5044502;28;20719;-61
2024/02/05 03:30:01;;;;;;;36.00;7.00;;;10.00;99.90;;;;;;5043014;28;20252;-62
2024/02/05 03:32:30;;;;;;;32.27;6.43;;;10.00;99.90;;;;;;5039746;28;20235;-61
2024/02/05 03:34:58;;;;;;;30.50;5.30;;;10.10;99.90;;;;;;5042290;28;20220;-61
2024/02/05 03:37:26;;;;;;;32.53;6.43;;;10.10;99.90;;;;;;5040761;28;20221;-61
2024/02/05 03:39:54;;;;;;;32.93;5.70;;;10.10;99.90;;;;;;5042219;28;20220;-61
2024/02/05 03:42:23;;;;;;;22.90;5.70;;;10.10;99.90;;;;;;5047158;28;20212;-61
2024/02/05 03:44:51;;;;;;;34.53;6.40;;;10.10;99.90;;;;;;5042483;28;20319;-61
2024/02/05 03:47:20;;;;;;;32.63;6.60;;;10.10;99.90;;;;;;5044747;28;20192;-61
2024/02/05 03:49:49;;;;;;;28.10;5.77;;;10.10;99.90;;;;;;5045801;28;20189;-61
2024/02/05 03:52:17;;;;;;;32.63;6.00;;;10.10;99.90;;;;;;5041071;28;20244;-61
2024/02/05 03:54:46;;;;;;;22.27;6.03;;;10.10;99.90;;;;;;5059104;28;20313;-61
2024/02/05 03:57:15;;;;;;;34.37;5.93;;;10.10;99.90;;;;;;5045291;28;20217;-61
2024/02/05 03:59:43;;;;;;;33.73;6.33;;;10.00;99.90;;;;;;5047540;28;20228;-62
2024/02/05 04:02:11;;;;;;;37.90;6.30;;;10.00;99.90;;;;;;5042358;28;20200;-61
2024/02/05 04:04:41;;;;;;;31.60;6.80;;;10.10;99.90;;;;;;5045268;28;20211;-61
2024/02/05 04:07:09;;;;;;;36.53;6.77;;;10.00;99.90;;;;;;5040511;28;20228;-62
2024/02/05 04:09:38;;;;;;;31.13;6.40;;;10.00;99.90;;;;;;5040532;28;20220;-61
2024/02/05 04:12:07;;;;;;;37.73;7.07;;;9.90;99.90;;;;;;5058687;28;20216;-61
2024/02/05 04:14:35;;;;;;;25.57;5.27;;;9.90;99.90;;;;;;5048418;28;20225;-61
2024/02/05 04:17:08;;;;;;;30.03;5.90;;;9.90;99.90;;;;;;5044289;28;20200;-61
2024/02/05 04:19:36;;;;;;;34.07;5.77;;;9.80;99.90;;;;;;5049571;28;20224;-61
2024/02/05 04:22:06;;;;;;;31.67;5.90;;;9.80;99.90;;;;;;5047108;28;20240;-61
2024/02/05 04:24:34;;;;;;;29.33;6.03;;;9.80;99.90;;;;;;5049077;28;20307;-62
2024/02/05 04:27:03;;;;;;;35.57;6.33;;;9.90;99.90;;;;;;5044271;28;20232;-62
2024/02/05 04:29:31;;;;;;;32.30;5.97;;;9.90;99.90;;;;;;5046465;28;20234;-61
2024/02/05 04:32:00;;;;;;;34.10;5.87;;;9.90;99.90;;;;;;5045134;28;20200;-62
2024/02/05 04:34:28;;;;;;;29.57;5.87;;;9.90;99.90;;;;;;5046999;28;20232;-62
2024/02/05 04:36:57;;;;;;;36.90;6.23;;;9.90;99.90;;;;;;5044459;28;20219;-62
2024/02/05 04:39:27;;;;;;;34.77;6.63;;;10.00;99.90;;;;;;5038786;28;20695;-61
2024/02/05 04:41:55;;;;;;;34.17;6.07;;;10.00;99.90;;;;;;5027789;28;20228;-61
2024/02/05 04:44:23;;;;;;;37.70;6.47;;;10.00;99.90;;;;;;5046628;28;20275;-62
2024/02/05 04:46:51;;;;;;;37.23;6.97;;;10.00;99.90;;;;;;5046323;28;20219;-61
2024/02/05 04:49:19;;;;;;;35.53;5.80;;;10.00;99.90;;;;;;5044980;28;20217;-61
2024/02/05 04:51:50;;;;;;;30.53;5.93;;;9.90;99.90;;;;;;5046838;28;20631;-61
2024/02/05 04:54:19;;;;;;;20.77;5.87;;;10.00;99.90;;;;;;5048510;28;20286;-61
2024/02/05 04:56:51;;;;;;;32.20;7.20;;;10.00;99.90;;;;;;5044187;28;20228;-61
2024/02/05 04:59:19;;;;;;;32.03;5.97;;;10.00;99.90;;;;;;5046747;28;20201;-62
2024/02/05 05:01:48;;;;;;;26.93;6.00;;;10.00;99.90;;;;;;5047873;28;20189;-61
2024/02/05 05:04:16;;;;;;;41.77;6.33;;;10.00;99.90;;;;;;5042485;28;20244;-62
2024/02/05 05:06:44;;;;;;;33.70;6.40;;;10.00;99.90;;;;;;5045099;28;20603;-61
2024/02/05 05:09:13;;;;;;;32.87;5.80;;;10.00;99.90;;;;;;5038309;28;20225;-61
2024/02/05 05:11:42;;;;;;;33.17;6.23;;;10.00;99.90;;;;;;5044082;28;20224;-61
2024/02/05 05:14:11;;;;;;;37.37;6.53;;;9.90;99.90;;;;;;5044774;28;20635;-61
2024/02/05 05:16:39;;;;;;;23.63;6.13;;;9.90;99.90;;;;;;5042977;28;20197;-62
2024/02/05 05:19:08;;;;;;;35.63;6.87;;;9.90;99.90;;;;;;5045727;28;20315;-61
2024/02/05 05:21:36;;;;;;;37.83;6.60;;;9.80;99.90;;;;;;5042932;28;20398;-62
2024/02/05 05:24:05;;;;;;;31.53;6.23;;;9.90;99.90;;;;;;5045379;28;20568;-62
2024/02/05 05:26:33;;;;;;;24.07;5.97;;;9.80;99.90;;;;;;5045548;28;20610;-61
2024/02/05 05:29:01;;;;;;;33.27;6.00;;;9.80;99.90;;;;;;5048340;28;20195;-62
2024/02/05 05:31:31;;;;;;;33.63;6.37;;;9.80;99.90;;;;;;5048263;28;20225;-61
2024/02/05 05:33:59;;;;;;;34.83;6.37;;;9.80;99.90;;;;;;5043062;28;20229;-61
2024/02/05 05:36:28;;;;;;;33.23;6.10;;;9.80;99.90;;;;;;5046051;28;20212;-62
2024/02/05 05:38:56;;;;;;;36.13;6.53;;;9.90;99.90;;;;;;5047817;28;20236;-61
2024/02/05 05:41:24;;;;;;;25.23;5.87;;;9.90;99.90;;;;;;5046474;28;20184;-62
2024/02/05 05:43:53;;;;;;;33.40;5.37;;;9.80;99.90;;;;;;5043149;28;20533;-61
2024/02/05 05:46:22;;;;;;;30.10;6.20;;;9.80;99.90;;;;;;5040956;28;20225;-61
2024/02/05 05:48:52;;;;;;;35.07;6.67;;;9.80;99.90;;;;;;5045246;28;20691;-62
2024/02/05 05:51:20;;;;;;;32.37;6.43;;;9.70;99.90;;;;;;5046773;28;20225;-61
2024/02/05 05:53:48;;;;;;;29.97;5.43;;;9.70;99.90;;;;;;5042860;28;20730;-62
2024/02/05 05:56:16;;;;;;;28.20;5.60;;;9.60;99.90;;;;;;5043730;28;20181;-62
2024/02/05 05:58:52;;;;;;;34.07;5.97;;;9.60;99.90;;;;;;5045131;28;20304;-62
2024/02/05 06:01:20;;;;;;;28.23;5.73;;;9.60;99.90;;;;;;5047072;28;20232;-62
2024/02/05 06:03:48;;;;;;;32.07;5.00;;;9.60;99.90;;;;;;5049407;28;20251;-61
2024/02/05 06:06:18;;;;;;;30.07;5.90;;;9.60;99.90;;;;;;5048154;28;20267;-61
2024/02/05 06:08:46;;;;;;;34.27;6.03;;;9.60;99.90;;;;;;5046989;28;20305;-61
2024/02/05 06:11:15;;;;;;;27.17;5.37;;;9.60;99.90;;;;;;5046005;28;20197;-60
2024/02/05 06:13:43;;;;;;;39.50;6.30;;;9.60;99.90;;;;;;5046777;28;20215;-60
2024/02/05 06:16:11;;;;;;;35.47;5.83;;;9.60;99.90;;;;;;5045565;28;20745;-60
2024/02/05 06:18:39;;;;;;;29.50;6.33;;;9.50;99.90;;;;;;5044807;28;20611;-61
2024/02/05 06:21:08;;;;;;;26.53;5.97;;;9.60;99.90;;;;;;5045384;28;20267;-60
2024/02/05 06:23:38;;;;;;;26.93;6.13;;;9.50;99.90;;;;;;5046820;28;20224;-60
2024/02/05 06:26:08;;;;;;;38.80;6.57;;;9.60;99.90;;;;;;5061634;28;20219;-60
2024/02/05 06:28:37;;;;;;;33.43;6.00;;;9.60;99.90;;;;;;5044717;28;20219;-60
2024/02/05 06:31:07;;;;;;;27.03;6.07;;;9.50;99.90;;;;;;5045347;28;20225;-61
2024/02/05 06:33:35;;;;;;;25.43;5.27;;;9.50;99.90;;;;;;5043346;28;20675;-61
2024/02/05 06:36:04;;;;;;;33.43;6.03;;;9.50;99.90;;;;;;5041821;28;20264;-61
2024/02/05 06:38:32;;;;;;;39.20;6.30;;;9.40;99.90;;;;;;5043528;28;20217;-61
2024/02/05 06:41:02;;;;;;;28.70;6.30;;;9.40;99.90;;;;;;5044963;28;20227;-62
2024/02/05 06:43:33;;;;;;;32.60;6.23;;;9.30;99.90;;;;;;5045519;28;20217;-61
2024/02/05 06:46:02;;;;;;;37.83;6.80;;;9.30;99.90;;;;;;5046443;28;20224;-61
2024/02/05 06:48:34;;;;;;;27.80;6.20;;;9.30;99.90;;;;;;5046015;28;20316;-62
2024/02/05 06:51:03;;;;;;;32.47;6.73;;;9.20;99.90;;;;;;5041120;28;20647;-61
2024/02/05 06:53:31;;;;;;;30.57;6.10;;;9.20;99.90;;;;;;5046416;28;20224;-61
2024/02/05 06:56:01;;;;;;;30.03;6.30;;;9.20;99.90;;;;;;5043183;28;20290;-61
2024/02/05 06:58:29;;;;;;;39.73;7.30;;;9.20;99.90;;;;;;5043794;28;20675;-61
2024/02/05 07:00:59;;;;;;;40.60;6.47;;;9.30;99.90;;;;;;5045517;28;20279;-61
2024/02/05 07:03:27;;;;;;;26.90;6.67;;;9.30;99.90;;;;;;5040545;28;20212;-61
2024/02/05 07:05:56;;;;;;;35.03;6.97;;;9.30;99.90;;;;;;5044310;28;20221;-62
2024/02/05 07:08:24;;;;;;;42.97;7.83;;;9.30;99.90;;;;;;5042703;28;20216;-61
2024/02/05 07:10:52;;;;;;;39.87;6.77;;;9.30;99.90;;;;;;5045914;28;20276;-61
2024/02/05 07:13:22;;;;;;;37.13;7.30;;;9.30;99.90;;;;;;5038990;28;20567;-62
2024/02/05 07:15:51;;;;;;;37.23;6.20;;;9.40;99.90;;;;;;5045043;28;20216;-61
2024/02/05 07:18:19;;;;;;;29.97;6.37;;;9.40;99.90;;;;;;5043248;28;20683;-62
2024/02/05 07:20:48;;;;;;;30.70;6.57;;;9.40;99.90;;;;;;5045459;28;20238;-61
2024/02/05 07:23:16;;;;;;;34.17;6.67;;;9.30;99.90;;;;;;5043521;28;20603;-62
2024/02/05 07:25:44;;;;;;;29.67;6.40;;;9.40;99.90;;;;;;5042693;28;20200;-62
2024/02/05 07:28:12;;;;;;;31.97;5.70;;;9.40;99.90;;;;;;5039545;28;20251;-62
2024/02/05 07:30:42;;;;;;;26.17;6.63;;;9.40;99.90;;;;;;5039986;28;20209;-62
2024/02/05 07:33:10;;;;;;;35.23;6.53;;;9.30;99.90;;;;;;5043320;28;20623;-61
2024/02/05 07:35:38;;;;;;;31.37;6.23;;;9.40;99.90;;;;;;5040368;28;20312;-62
2024/02/05 07:38:07;;;;;;;30.57;6.20;;;9.40;99.90;;;;;;5045735;28;20200;-61
2024/02/05 07:40:35;;;;;;;33.00;6.90;;;9.50;99.90;;;;;;5037689;28;20233;-62
2024/02/05 07:43:03;;;;;;;26.20;6.17;;;9.40;99.90;;;;;;5040072;28;20241;-61
2024/02/05 07:45:33;;;;;;;26.73;6.00;;;9.40;99.90;;;;;;5040026;28;20232;-61
2024/02/05 07:48:03;;;;;;;32.70;6.33;;;9.40;99.90;;;;;;5043702;28;20233;-62
2024/02/05 07:50:32;;;;;;;34.23;6.17;;;9.40;99.90;;;;;;5045530;28;20247;-61
2024/02/05 07:53:00;;;;;;;26.77;6.10;;;9.40;99.90;;;;;;5044597;28;20197;-61
2024/02/05 07:55:28;;;;;;;28.30;6.37;;;9.50;99.90;;;;;;5042225;28;20232;-61
2024/02/05 07:57:56;;;;;;;34.50;6.17;;;9.50;99.90;;;;;;5044490;28;20258;-61
2024/02/05 08:00:25;;;;;;;29.63;5.97;;;9.50;99.90;;;;;;5039753;28;20235;-61
2024/02/05 08:02:53;;;;;;;28.90;6.20;;;9.50;99.90;;;;;;5038628;28;20213;-61
2024/02/05 08:05:23;;;;;;;38.47;6.90;;;9.50;99.90;;;;;;5043566;28;20192;-60
2024/02/05 08:07:51;;;;;;;25.67;6.13;;;9.60;99.90;;;;;;5045616;28;21007;-61
2024/02/05 08:10:20;;;;;;;43.73;7.03;;;9.60;99.90;;;;;;5042192;28;20232;-63
2024/02/05 08:12:48;;;;;;;30.53;5.90;;;9.60;99.90;;;;;;5043891;28;20760;-62
2024/02/05 08:15:16;;;;;;;25.63;7.10;;;9.50;99.90;;;;;;5043189;28;20816;-61
2024/02/05 08:17:45;;;;;;;28.23;6.87;;;9.60;99.90;;;;;;5044323;28;20262;-61
2024/02/05 08:20:13;;;;;;;26.90;5.93;;;9.70;99.90;;;;;;5045863;28;20902;-61
2024/02/05 08:22:45;;;;;;;28.33;5.07;;;9.70;99.90;;;;;;5043479;28;20641;-62
2024/02/05 08:25:13;;;;;;;29.67;6.67;;;9.70;99.90;;;;;;5045420;28;20318;-61
2024/02/05 08:27:42;;;;;;;36.60;6.70;;;9.70;99.90;;;;;;5040454;28;20575;-61
2024/02/05 08:30:12;;;;;;;25.53;5.50;;;9.80;99.90;;;;;;5042977;28;20217;-61
2024/02/05 08:32:40;;;;;;;31.00;6.47;;;9.80;99.90;;;;;;5044645;28;20232;-61
2024/02/05 08:35:09;;;;;;;20.67;5.10;;;9.80;99.90;;;;;;5042304;28;20185;-61
2024/02/05 08:37:37;;;;;;;24.77;5.90;;;9.90;99.90;;;;;;5046811;28;20232;-61
2024/02/05 08:40:09;;;;;;;23.37;5.73;;;9.90;99.90;;;;;;5046622;28;20289;-61
2024/02/05 08:42:37;;;;;;;26.40;5.63;;;9.90;99.90;;;;;;5030835;28;20264;-61
2024/02/05 08:45:07;;;;;;;30.27;6.43;;;10.00;99.90;;;;;;5033384;28;20602;-62
2024/02/05 08:47:35;;;;;;;33.90;5.70;;;10.00;99.90;;;;;;5045383;28;20263;-61
2024/02/05 08:50:04;;;;;;;24.73;5.53;;;10.00;99.90;;;;;;5042999;28;20666;-61
2024/02/05 08:52:32;;;;;;;29.43;6.73;;;10.00;99.90;;;;;;5042398;28;20217;-61
2024/02/05 08:55:01;;;;;;;41.00;7.67;;;10.00;99.90;;;;;;5043436;28;20223;-62
2024/02/05 08:57:31;;;;;;;33.03;6.03;;;10.00;99.90;;;;;;5045273;28;20225;-62
2024/02/05 09:00:00;;;;;;;29.87;6.90;;;10.10;99.90;;;;;;5045529;28;20219;-61
2024/02/05 09:02:28;;;;;;;25.47;6.77;;;10.10;99.90;;;;;;5046616;28;20260;-61
2024/02/05 09:04:56;;;;;;;39.13;6.70;;;10.20;99.90;;;;;;5046589;28;20631;-61
2024/02/05 09:07:27;;;;;;;28.83;5.50;;;10.20;99.90;;;;;;5046677;28;20583;-61
2024/02/05 09:09:55;;;;;;;31.83;7.13;;;10.30;99.90;;;;;;5046516;28;20213;-61
2024/02/05 09:12:24;;;;;;;29.13;6.17;;;10.30;99.90;;;;;;5049187;28;20220;-61
2024/02/05 09:14:54;;;;;;;29.43;6.37;;;10.40;99.90;;;;;;5045351;28;20224;-61
2024/02/05 09:17:22;;;;;;;39.23;8.37;;;10.40;99.90;;;;;;5046644;28;20240;-62
2024/02/05 09:19:51;;;;;;;24.73;5.37;;;10.40;99.90;;;;;;5045835;28;20649;-61
2024/02/05 09:22:19;;;;;;;30.07;6.60;;;10.40;99.90;;;;;;5048845;28;20216;-61
2024/02/05 09:24:48;;;;;;;37.27;8.63;;;10.50;99.90;;;;;;5047415;28;20282;-62
2024/02/05 09:27:16;;;;;;;33.97;9.27;;;10.50;99.90;;;;;;5045402;28;20235;-61
2024/02/05 09:29:44;;;;;;;28.53;7.33;;;10.50;99.90;;;;;;5049324;28;20224;-61
2024/02/05 09:32:14;;;;;;;29.63;6.80;;;10.60;99.90;;;;;;5046376;28;20688;-62
2024/02/05 09:34:42;;;;;;;23.50;6.37;;;10.60;99.90;;;;;;5045213;28;20858;-62
2024/02/05 09:37:13;;;;;;;26.23;5.80;;;10.60;99.90;;;;;;5048654;28;20216;-62
2024/02/05 09:39:41;;;;;;;24.30;6.20;;;10.60;99.90;;;;;;5047586;28;20225;-62
2024/02/05 09:42:12;;;;;;;29.80;6.37;;;10.70;99.90;;;;;;5047788;28;20679;-60
2024/02/05 09:44:42;;;;;;;63.50;10.30;;;10.70;99.90;;;;;;5049982;28;20224;-61
2024/02/05 09:47:13;;;;;;;63.77;11.60;;;10.80;99.90;;;;;;5048135;28;20564;-60
2024/02/05 09:49:42;;;;;;;35.87;6.57;;;10.80;99.90;;;;;;5045938;28;20964;-61
2024/02/05 09:52:12;;;;;;;22.37;5.67;;;10.80;99.90;;;;;;5043351;28;20753;-62
2024/02/05 09:54:41;;;;;;;42.27;6.97;;;10.90;99.90;;;;;;5045187;28;20208;-61
2024/02/05 09:57:10;;;;;;;51.30;8.50;;;10.90;99.90;;;;;;5047390;28;20250;-62
2024/02/05 09:59:40;;;;;;;33.30;5.87;;;11.00;99.90;;;;;;5047206;28;20231;-62
2024/02/05 10:02:09;;;;;;;31.87;6.57;;;11.00;99.90;;;;;;5048026;28;20196;-62
2024/02/05 10:04:47;;;;;;;23.50;5.10;;;11.00;99.90;;;;;;5043004;28;20208;-62
2024/02/05 10:07:17;;;;;;;31.57;6.40;;;11.10;99.90;;;;;;5045872;28;20311;-62
2024/02/05 10:09:47;;;;;;;23.13;5.37;;;11.10;99.90;;;;;;5045807;28;20279;-61
2024/02/05 10:12:17;;;;;;;26.67;5.17;;;11.10;99.90;;;;;;5044848;28;20346;-62
2024/02/05 10:14:45;;;;;;;27.30;5.03;;;11.10;99.90;;;;;;5046510;28;20220;-62
2024/02/05 10:17:15;;;;;;;23.57;6.17;;;11.10;99.90;;;;;;5046903;28;20224;-61
2024/02/05 10:19:45;;;;;;;26.67;7.13;;;11.10;99.90;;;;;;5044083;28;20185;-61
2024/02/05 10:22:13;;;;;;;19.60;5.10;;;11.10;99.90;;;;;;5046915;28;20711;-61
2024/02/05 10:24:42;;;;;;;33.63;6.63;;;11.10;99.90;;;;;;5044923;28;20684;-61
2024/02/05 10:27:15;;;;;;;32.27;5.93;;;11.10;99.90;;;;;;5045120;28;20236;-62
2024/02/05 10:29:44;;;;;;;31.37;6.07;;;11.10;99.90;;;;;;5044051;28;20345;-61
2024/02/05 10:32:12;;;;;;;30.77;5.67;;;11.10;99.90;;;;;;5043536;28;20909;-61
2024/02/05 10:34:40;;;;;;;31.70;5.30;;;11.00;99.90;;;;;;5043612;28;20236;-61
2024/02/05 10:37:11;;;;;;;24.73;5.17;;;11.00;99.90;;;;;;5046061;28;20220;-62
2024/02/05 10:39:40;;;;;;;21.37;5.63;;;11.00;99.90;;;;;;5048928;28;20244;-61
2024/02/05 10:42:09;;;;;;;24.77;5.73;;;11.00;99.90;;;;;;5047854;28;20224;-62
2024/02/05 10:44:37;;;;;;;24.77;5.37;;;11.00;99.90;;;;;;5042311;28;20350;-61
2024/02/05 10:47:09;;;;;;;31.97;5.93;;;11.00;99.90;;;;;;5046700;28;20189;-61
2024/02/05 10:49:39;;;;;;;25.83;6.03;;;11.00;99.90;;;;;;5041960;28;20225;-61
2024/02/05 10:52:07;;;;;;;20.03;5.97;;;11.00;99.90;;;;;;5041393;28;20236;-61
2024/02/05 10:54:45;;;;;;;30.10;6.83;;;11.00;99.90;;;;;;5045435;28;20224;-61
2024/02/05 10:57:18;;;;;;;35.40;6.23;;;11.00;99.90;;;;;;5047279;28;20244;-62
2024/02/05 10:59:46;;;;;;;27.40;5.57;;;11.00;99.90;;;;;;5046501;28;20311;-61
2024/02/05 11:02:22;;;;;;;26.47;6.03;;;11.00;99.90;;;;;;5046429;28;20532;-61
2024/02/05 11:04:54;;;;;;;33.73;5.87;;;11.10;99.90;;;;;;5044628;28;20239;-61
2024/02/05 11:07:25;;;;;;;24.83;4.83;;;11.10;99.90;;;;;;5044273;28;20224;-61
2024/02/05 11:10:00;;;;;;;32.47;5.57;;;11.10;99.90;;;;;;5041303;28;20225;-61
2024/02/05 11:12:32;;;;;;;25.83;5.50;;;11.20;99.90;;;;;;5047079;28;20220;-62
2024/02/05 11:15:06;;;;;;;28.50;5.50;;;11.30;99.90;;;;;;5045376;28;20251;-62
2024/02/05 11:17:36;;;;;;;29.23;5.67;;;11.20;99.90;;;;;;5046335;28;20671;-62
2024/02/05 11:20:11;;;;;;;32.30;6.27;;;11.10;99.90;;;;;;5045347;28;20185;-63
2024/02/05 11:22:43;;;;;;;28.70;5.80;;;11.10;99.90;;;;;;5043794;28;20216;-63
2024/02/05 11:25:17;;;;;;;27.60;6.20;;;11.10;99.90;;;;;;5044963;28;20217;-62
2024/02/05 11:27:45;;;;;;;17.93;6.23;;;11.10;99.90;;;;;;5042810;28;20294;-63
2024/02/05 11:30:16;;;;;;;26.70;5.43;;;11.00;99.90;;;;;;5044981;28;20224;-62
2024/02/05 11:32:47;;;;;;;26.47;5.73;;;11.00;99.90;;;;;;5047369;28;20251;-63
2024/02/05 11:35:15;;;;;;;25.40;5.13;;;11.00;99.90;;;;;;5045137;28;20628;-63
2024/02/05 11:37:44;;;;;;;19.23;5.30;;;11.00;99.90;;;;;;5044947;28;20201;-62
2024/02/05 11:40:23;;;;;;;29.27;5.90;;;11.00;99.90;;;;;;5044475;28;20251;-62
2024/02/05 11:43:02;;;;;;;22.63;5.07;;;10.90;99.90;;;;;;5046802;28;20220;-63
2024/02/05 11:45:32;;;;;;;19.03;5.90;;;10.90;99.90;;;;;;5042008;28;20221;-62
2024/02/05 11:48:03;;;;;;;36.10;5.63;;;10.90;99.90;;;;;;5044072;28;20212;-63
2024/02/05 11:50:34;;;;;;;25.77;5.97;;;10.80;99.90;;;;;;5046657;28;20959;-62
2024/02/05 11:53:02;;;;;;;24.97;5.97;;;10.80;99.90;;;;;;5045461;28;20195;-62
2024/02/05 11:55:34;;;;;;;23.27;5.30;;;10.70;99.90;;;;;;5043759;28;20304;-62
2024/02/05 11:58:02;;;;;;;21.40;5.23;;;10.70;99.90;;;;;;5044761;28;20235;-62
2024/02/05 12:00:31;;;;;;;18.17;5.10;;;10.70;99.90;;;;;;5041693;28;20217;-62
2024/02/05 12:02:59;;;;;;;27.60;5.47;;;10.70;99.90;;;;;;5043699;28;20967;-63
2024/02/05 12:05:29;;;;;;;25.03;5.10;;;10.60;99.90;;;;;;5044688;28;20185;-62
2024/02/05 12:07:58;;;;;;;22.60;5.30;;;10.60;99.90;;;;;;5039403;28;20197;-62
2024/02/05 12:10:27;;;;;;;19.83;5.40;;;10.50;99.90;;;;;;5046247;28;20274;-63
2024/02/05 12:12:57;;;;;;;26.97;5.33;;;10.50;99.90;;;;;;5046571;28;20213;-63
2024/02/05 12:15:27;;;;;;;20.00;5.07;;;10.50;99.90;;;;;;5043861;28;20223;-62
2024/02/05 12:18:00;;;;;;;26.87;5.20;;;10.50;99.90;;;;;;5041372;28;20316;-62
2024/02/05 12:20:29;;;;;;;20.70;4.90;;;10.50;99.90;;;;;;5042474;28;20456;-63
2024/02/05 12:22:58;;;;;;;8.57;4.20;;;10.50;99.90;;;;;;5041193;28;20201;-62
2024/02/05 12:25:27;;;;;;;16.43;4.63;;;10.50;99.90;;;;;;5044565;28;20231;-61
2024/02/05 12:28:14;;;;;;;20.33;4.73;;;10.50;99.90;;;;;;5041947;28;20243;-61
2024/02/05 12:30:43;;;;;;;19.27;4.43;;;10.50;99.90;;;;;;5043219;28;20224;-62
2024/02/05 12:33:15;;;;;;;16.83;5.23;;;10.50;99.90;;;;;;5042610;28;20224;-62
2024/02/05 12:35:46;;;;;;;15.43;4.80;;;10.50;99.90;;;;;;5048992;28;20216;-61
2024/02/05 12:38:15;;;;;;;16.73;4.50;;;10.40;99.90;;;;;;5045415;28;20679;-61
2024/02/05 12:40:44;;;;;;;18.37;4.67;;;10.40;99.90;;;;;;5039282;28;20258;-61
2024/02/05 12:43:16;;;;;;;19.87;4.97;;;10.30;99.90;;;;;;5040972;28;20232;-62
2024/02/05 12:45:44;;;;;;;14.13;4.00;;;10.30;99.90;;;;;;5047844;28;20225;-61
2024/02/05 12:48:14;;;;;;;15.07;3.90;;;10.30;99.90;;;;;;5043214;28;20270;-62
2024/02/05 12:50:42;;;;;;;15.17;4.30;;;10.30;99.90;;;;;;5048430;28;20223;-61